createdAt,value
2022-08-09T00:00:00.687Z,69.45
2022-08-09T00:02:33.504Z,69.55
2022-08-09T00:06:16.585Z,69.55
2022-08-09T00:07:47.387Z,69.76
2022-08-09T00:10:17.817Z,70.05
2022-08-09T00:12:45.606Z,70.11
2022-08-09T00:15:14.700Z,70.08
2022-08-09T00:18:07.608Z,70.16
2022-08-09T00:20:28.477Z,70.15
2022-08-09T00:22:58.265Z,70.10
2022-08-09T00:25:44.904Z,70.06
2022-08-09T00:28:19.347Z,69.96
2022-08-09T00:30:50.667Z,70.23
2022-08-09T00:33:17.505Z,70.22
2022-08-09T00:35:44.259Z,70.04
2022-08-09T00:38:12.707Z,70.00
2022-08-09T00:40:40.191Z,70.00
2022-08-09T00:44:11.191Z,69.77
2022-08-09T00:46:10.098Z,69.46
2022-08-09T00:48:37.255Z,69.46
2022-08-09T00:51:11.877Z,69.42
2022-08-09T00:53:39.997Z,69.30
2022-08-09T00:56:09.826Z,69.53
2022-08-09T00:58:37.000Z,69.67
2022-08-09T01:01:19.197Z,69.75
2022-08-09T01:04:18.472Z,69.86
2022-08-09T01:07:14.061Z,70.04
2022-08-09T01:09:54.107Z,69.91
2022-08-09T01:12:45.604Z,69.93
2022-08-09T01:15:17.650Z,69.71
2022-08-09T01:17:51.968Z,69.69
2022-08-09T01:20:24.576Z,69.74
2022-08-09T01:24:02.677Z,69.67
2022-08-09T01:26:30.788Z,69.05
2022-08-09T01:29:00.740Z,68.42
2022-08-09T01:32:29.480Z,68.06
2022-08-09T01:34:21.110Z,67.99
2022-08-09T01:36:49.595Z,67.66
2022-08-09T01:39:17.810Z,67.18
2022-08-09T01:41:53.778Z,67.11
2022-08-09T01:44:30.727Z,66.95
2022-08-09T01:46:59.960Z,67.02
2022-08-09T01:49:32.064Z,67.08
2022-08-09T01:52:10.437Z,66.69
2022-08-09T01:54:41.265Z,66.59
2022-08-09T01:57:14.863Z,66.81
2022-08-09T01:59:51.852Z,66.75
2022-08-09T02:02:30.973Z,66.67
2022-08-09T02:05:05.614Z,66.82
2022-08-09T02:08:40.229Z,66.24
2022-08-09T02:10:40.358Z,65.85
2022-08-09T02:13:14.584Z,65.93
2022-08-09T02:15:50.149Z,65.57
2022-08-09T02:18:24.035Z,65.31
2022-08-09T02:21:06.076Z,65.28
2022-08-09T02:23:39.845Z,64.98
2022-08-09T02:26:25.106Z,64.97
2022-08-09T02:28:57.525Z,65.01
2022-08-09T02:31:35.679Z,64.94
2022-08-09T02:34:13.093Z,65.02
2022-08-09T02:36:43.375Z,64.98
2022-08-09T02:39:19.871Z,64.89
2022-08-09T02:41:56.671Z,64.90
2022-08-09T02:44:31.206Z,65.10
2022-08-09T02:47:02.691Z,65.07
2022-08-09T02:49:38.897Z,65.29
2022-08-09T02:52:13.596Z,65.36
2022-08-09T02:54:54.305Z,65.28
2022-08-09T02:57:25.051Z,65.36
2022-08-09T03:00:25.209Z,65.29
2022-08-09T03:02:57.993Z,65.10
2022-08-09T03:05:27.757Z,65.12
2022-08-09T03:07:55.762Z,65.35
2022-08-09T03:10:24.611Z,65.37
2022-08-09T03:12:53.214Z,65.68
2022-08-09T03:15:23.106Z,66.08
2022-08-09T03:17:58.641Z,66.14
2022-08-09T03:20:29.487Z,66.21
2022-08-09T03:23:05.541Z,66.26
2022-08-09T03:25:58.201Z,66.19
2022-08-09T03:28:30.520Z,66.29
2022-08-09T03:30:58.757Z,66.39
2022-08-09T03:33:53.461Z,66.25
2022-08-09T03:36:16.605Z,66.22
2022-08-09T03:38:44.947Z,66.14
2022-08-09T03:41:16.624Z,66.36
2022-08-09T03:44:04.019Z,66.42
2022-08-09T03:46:35.071Z,66.48
2022-08-09T03:49:08.686Z,66.50
2022-08-09T03:51:56.249Z,66.46
2022-08-09T03:54:31.320Z,66.55
2022-08-09T03:57:04.071Z,66.77
2022-08-09T03:59:53.458Z,66.72
2022-08-09T04:02:27.839Z,66.65
2022-08-09T04:05:05.660Z,66.73
2022-08-09T04:07:47.029Z,66.65
2022-08-09T04:10:29.180Z,66.56
2022-08-09T04:13:01.378Z,66.87
2022-08-09T04:15:52.446Z,67.09
2022-08-09T04:18:19.384Z,66.65
2022-08-09T04:20:48.143Z,67.10
2022-08-09T04:23:17.107Z,67.25
2022-08-09T04:25:52.184Z,67.08
2022-08-09T04:28:34.145Z,67.17
2022-08-09T04:31:08.043Z,67.11
2022-08-09T04:33:52.429Z,67.45
2022-08-09T04:36:23.447Z,67.86
2022-08-09T04:38:51.168Z,67.97
2022-08-09T04:41:18.887Z,67.98
2022-08-09T04:43:46.497Z,68.15
2022-08-09T04:46:36.564Z,68.25
2022-08-09T04:49:30.259Z,68.37
2022-08-09T04:52:05.915Z,68.41
2022-08-09T04:54:34.435Z,68.75
2022-08-09T04:57:01.144Z,68.82
2022-08-09T04:59:31.518Z,68.96
2022-08-09T05:01:58.582Z,69.08
2022-08-09T05:04:30.865Z,69.14
2022-08-09T05:06:58.484Z,69.13
2022-08-09T05:09:25.262Z,69.32
2022-08-09T05:12:11.057Z,69.64
2022-08-09T05:14:41.158Z,69.98
2022-08-09T05:18:36.555Z,69.83
2022-08-09T05:19:57.065Z,69.82
2022-08-09T05:22:33.477Z,69.79
2022-08-09T05:25:04.697Z,70.17
2022-08-09T05:27:31.531Z,69.93
2022-08-09T05:29:58.998Z,70.02
2022-08-09T05:32:26.426Z,70.31
2022-08-09T05:34:56.887Z,70.19
2022-08-09T05:37:23.916Z,70.45
2022-08-09T05:39:52.450Z,70.27
2022-08-09T05:42:21.586Z,70.24
2022-08-09T05:44:54.065Z,70.61
2022-08-09T05:47:21.663Z,70.29
2022-08-09T05:50:29.863Z,69.99
2022-08-09T05:52:38.802Z,70.05
2022-08-09T05:55:08.719Z,70.15
2022-08-09T05:57:56.145Z,70.31
2022-08-09T06:00:23.868Z,70.31
2022-08-09T06:02:54.652Z,70.46
2022-08-09T06:05:30.980Z,70.78
2022-08-09T06:08:19.618Z,70.74
2022-08-09T06:10:51.502Z,70.60
2022-08-09T06:13:20.327Z,70.60
2022-08-09T06:15:52.275Z,70.66
2022-08-09T06:18:25.361Z,70.41
2022-08-09T06:20:57.787Z,70.26
2022-08-09T06:23:57.553Z,70.27
2022-08-09T06:26:22.458Z,70.19
2022-08-09T06:28:59.356Z,70.05
2022-08-09T06:31:31.016Z,70.11
2022-08-09T06:34:06.636Z,70.11
2022-08-09T06:36:34.115Z,70.01
2022-08-09T06:39:02.665Z,69.92
2022-08-09T06:42:07.687Z,69.82
2022-08-09T06:44:22.882Z,69.93
2022-08-09T06:46:55.236Z,69.78
2022-08-09T06:49:44.697Z,69.88
2022-08-09T06:52:10.159Z,69.71
2022-08-09T06:54:38.800Z,69.60
2022-08-09T06:57:08.241Z,69.63
2022-08-09T07:00:51.496Z,69.38
2022-08-09T07:02:22.067Z,69.32
2022-08-09T07:04:56.256Z,69.13
2022-08-09T07:07:59.101Z,69.17
2022-08-09T07:10:22.606Z,69.01
2022-08-09T07:12:57.073Z,68.77
2022-08-09T07:15:53.920Z,68.92
2022-08-09T07:18:11.555Z,68.70
2022-08-09T07:20:43.675Z,68.64
2022-08-09T07:23:18.324Z,68.65
2022-08-09T07:25:47.651Z,68.58
2022-08-09T07:28:26.341Z,68.53
2022-08-09T07:30:55.161Z,68.41
2022-08-09T07:33:22.029Z,68.19
2022-08-09T07:35:53.833Z,67.99
2022-08-09T07:38:23.481Z,67.65
2022-08-09T07:41:09.910Z,67.46
2022-08-09T07:43:49.627Z,67.19
2022-08-09T07:46:19.343Z,67.19
2022-08-09T07:48:47.051Z,67.27
2022-08-09T07:52:05.648Z,67.17
2022-08-09T07:54:12.802Z,67.44
2022-08-09T07:56:49.811Z,67.79
2022-08-09T07:59:25.708Z,67.75
2022-08-09T08:02:00.967Z,67.87
2022-08-09T08:04:31.533Z,67.42
2022-08-09T08:07:00.218Z,67.23
2022-08-09T08:09:42.955Z,66.99
2022-08-09T08:12:29.222Z,66.63
2022-08-09T08:14:57.565Z,65.97
2022-08-09T08:17:52.080Z,64.96
2022-08-09T08:20:13.666Z,64.91
2022-08-09T08:22:41.084Z,63.81
2022-08-09T08:25:13.511Z,61.77
2022-08-09T08:27:43.019Z,59.98
2022-08-09T08:30:11.846Z,58.09
2022-08-09T08:32:52.754Z,56.39
2022-08-09T08:35:22.538Z,54.26
2022-08-09T08:38:04.848Z,52.21
2022-08-09T08:40:38.534Z,50.30
2022-08-09T08:43:08.733Z,48.43
2022-08-09T08:45:51.713Z,46.99
2022-08-09T08:48:22.944Z,45.90
2022-08-09T08:50:57.443Z,43.99
2022-08-09T08:53:32.121Z,42.92
2022-08-09T08:56:04.702Z,42.22
2022-08-09T08:58:33.233Z,41.33
2022-08-09T09:01:09.200Z,40.94
2022-08-09T09:03:50.527Z,40.25
2022-08-09T09:06:19.097Z,39.39
2022-08-09T09:08:52.354Z,39.12
2022-08-09T09:11:20.613Z,38.70
2022-08-09T09:13:56.851Z,38.21
2022-08-09T09:16:33.621Z,38.02
2022-08-09T09:19:40.841Z,37.62
2022-08-09T09:22:03.672Z,37.55
2022-08-09T09:24:38.208Z,37.10
2022-08-09T09:27:08.540Z,36.89
2022-08-09T09:30:12.068Z,36.56
2022-08-09T09:32:34.533Z,35.81
2022-08-09T09:35:02.316Z,35.15
2022-08-09T09:37:31.760Z,34.62
2022-08-09T09:39:59.973Z,33.86
2022-08-09T09:42:29.809Z,33.69
2022-08-09T09:45:04.175Z,33.94
2022-08-09T09:47:32.531Z,33.55
2022-08-09T09:50:13.768Z,32.56
2022-08-09T09:52:54.386Z,32.54
2022-08-09T09:55:28.675Z,31.91
2022-08-09T09:58:18.826Z,31.18
2022-08-09T10:00:53.828Z,30.73
2022-08-09T10:03:57.713Z,31.24
2022-08-09T10:06:28.495Z,31.03
2022-08-09T10:09:21.465Z,31.02
2022-08-09T10:12:14.714Z,31.06
2022-08-09T10:14:49.366Z,30.87
2022-08-09T10:17:40.537Z,30.72
2022-08-09T10:20:31.844Z,30.77
2022-08-09T10:23:24.939Z,31.39
2022-08-09T10:26:06.836Z,31.00
2022-08-09T10:28:39.165Z,30.33
2022-08-09T10:34:09.204Z,30.54
2022-08-09T10:36:42.976Z,30.50
2022-08-09T10:39:15.712Z,30.67
2022-08-09T10:41:45.017Z,31.33
2022-08-09T10:44:12.781Z,31.36
2022-08-09T10:46:55.782Z,32.15
2022-08-09T10:49:51.626Z,32.80
2022-08-09T10:52:52.098Z,33.13
2022-08-09T10:55:28.737Z,33.47
2022-08-09T10:58:03.492Z,34.16
2022-08-09T11:00:37.077Z,34.02
2022-08-09T11:03:47.088Z,35.53
2022-08-09T11:06:24.155Z,36.46
2022-08-09T11:08:53.950Z,36.52
2022-08-09T11:11:21.938Z,37.16
2022-08-09T11:14:28.021Z,37.60
2022-08-09T11:16:56.148Z,37.53
2022-08-09T11:20:22.285Z,38.30
2022-08-09T11:22:55.456Z,39.33
2022-08-09T11:25:47.805Z,39.76
2022-08-09T11:28:38.781Z,40.12
2022-08-09T11:31:50.147Z,40.20
2022-08-09T11:34:56.772Z,41.27
2022-08-09T11:37:40.519Z,41.25
2022-08-09T11:40:11.296Z,40.54
2022-08-09T11:42:49.204Z,40.85
2022-08-09T11:45:51.967Z,41.05
2022-08-09T11:48:26.154Z,41.30
2022-08-09T11:52:49.293Z,41.13
2022-08-09T11:54:01.494Z,41.26
2022-08-09T11:56:42.673Z,41.11
2022-08-09T11:59:30.516Z,41.64
2022-08-09T12:02:34.389Z,42.29
2022-08-09T12:04:58.076Z,43.10
2022-08-09T12:07:34.442Z,43.08
2022-08-09T12:10:31.995Z,43.16
2022-08-09T12:12:57.624Z,43.41
2022-08-09T12:15:49.760Z,43.64
2022-08-09T12:18:30.145Z,43.29
2022-08-09T12:21:00.714Z,43.89
2022-08-09T12:23:56.473Z,43.94
2022-08-09T12:26:25.758Z,43.60
2022-08-09T12:29:11.817Z,43.53
2022-08-09T12:31:58.875Z,43.44
2022-08-09T12:34:34.005Z,43.29
2022-08-09T12:37:21.584Z,42.86
2022-08-09T12:40:09.809Z,43.07
2022-08-09T12:42:42.573Z,43.15
2022-08-09T12:45:34.408Z,43.56
2022-08-09T12:47:56.846Z,43.26
2022-08-09T12:50:25.156Z,42.80
2022-08-09T12:53:09.481Z,42.91
2022-08-09T12:56:15.560Z,43.26
2022-08-09T12:58:28.194Z,43.09
2022-08-09T13:00:56.117Z,43.57
2022-08-09T13:03:57.401Z,43.22
2022-08-09T13:06:34.725Z,43.58
2022-08-09T13:09:13.865Z,43.07
2022-08-09T13:11:43.335Z,42.56
2022-08-09T13:14:42.139Z,42.24
2022-08-09T13:17:44.104Z,42.29
2022-08-09T13:20:13.293Z,42.47
2022-08-09T13:23:04.710Z,42.20
2022-08-09T13:25:42.438Z,42.10
2022-08-09T13:28:18.779Z,42.43
2022-08-09T13:32:14.219Z,42.08
2022-08-09T13:33:54.153Z,42.05
2022-08-09T13:36:39.815Z,41.61
2022-08-09T13:41:18.989Z,41.86
2022-08-09T13:42:12.716Z,41.53
2022-08-09T13:44:42.057Z,41.07
2022-08-09T13:47:26.559Z,40.43
2022-08-09T13:50:01.321Z,40.37
2022-08-09T13:52:33.337Z,40.41
2022-08-09T13:55:04.381Z,39.93
2022-08-09T13:57:40.246Z,39.56
2022-08-09T14:00:27.322Z,40.06
2022-08-09T14:03:03.510Z,39.77
2022-08-09T14:05:58.604Z,39.15
2022-08-09T14:08:29.994Z,39.08
2022-08-09T14:11:00.156Z,38.65
2022-08-09T14:14:23.422Z,37.84
2022-08-09T14:16:28.770Z,38.33
2022-08-09T14:18:58.133Z,38.28
2022-08-09T14:21:29.654Z,38.25
2022-08-09T14:24:01.334Z,38.09
2022-08-09T14:26:37.726Z,37.42
2022-08-09T14:29:07.738Z,37.22
2022-08-09T14:31:54.579Z,37.40
2022-08-09T14:34:31.473Z,37.25
2022-08-09T14:37:06.519Z,37.04
2022-08-09T14:39:45.394Z,37.31
2022-08-09T14:42:31.618Z,36.88
2022-08-09T14:45:14.913Z,37.22
2022-08-09T14:47:56.968Z,36.94
2022-08-09T14:50:26.300Z,37.00
2022-08-09T14:52:54.708Z,37.03
2022-08-09T14:55:21.550Z,36.63
2022-08-09T14:57:49.270Z,36.48
2022-08-09T15:00:17.037Z,36.66
2022-08-09T15:02:47.278Z,36.35
2022-08-09T15:05:18.641Z,36.06
2022-08-09T15:07:54.756Z,36.48
2022-08-09T15:10:24.951Z,36.25
2022-08-09T15:12:53.365Z,36.32
2022-08-09T15:15:20.417Z,36.09
2022-08-09T15:17:52.946Z,36.16
2022-08-09T15:21:56.827Z,35.84
2022-08-09T15:24:03.138Z,36.35
2022-08-09T15:25:57.468Z,36.77
2022-08-09T15:28:27.493Z,36.46
2022-08-09T15:31:01.910Z,36.53
2022-08-09T15:34:15.544Z,36.46
2022-08-09T15:36:25.489Z,36.77
2022-08-09T15:38:56.485Z,36.93
2022-08-09T15:41:23.398Z,37.10
2022-08-09T15:44:03.568Z,37.69
2022-08-09T15:46:33.767Z,37.60
2022-08-09T15:49:21.251Z,37.64
2022-08-09T15:52:03.840Z,37.42
2022-08-09T15:54:49.053Z,37.30
2022-08-09T15:57:35.887Z,36.95
2022-08-09T16:00:24.622Z,36.73
2022-08-09T16:02:54.645Z,36.11
2022-08-09T16:05:23.773Z,36.38
2022-08-09T16:07:51.153Z,36.56
2022-08-09T16:10:54.912Z,36.57
2022-08-09T16:13:20.724Z,36.56
2022-08-09T16:16:04.392Z,36.36
2022-08-09T16:18:45.196Z,36.37
2022-08-09T16:21:17.558Z,35.71
2022-08-09T16:23:58.671Z,35.86
2022-08-09T16:26:33.814Z,35.79
2022-08-09T16:29:14.481Z,35.24
2022-08-09T16:32:18.419Z,35.42
2022-08-09T16:34:54.520Z,35.55
2022-08-09T16:37:53.420Z,35.51
2022-08-09T16:40:10.211Z,35.12
2022-08-09T16:42:37.407Z,35.13
2022-08-09T16:45:05.887Z,35.15
2022-08-09T16:48:42.504Z,35.38
2022-08-09T16:50:29.072Z,34.97
2022-08-09T16:52:59.993Z,35.20
2022-08-09T16:55:26.690Z,34.96
2022-08-09T16:58:08.718Z,34.68
2022-08-09T17:00:36.775Z,34.98
2022-08-09T17:03:07.146Z,34.92
2022-08-09T17:06:03.508Z,35.07
2022-08-09T17:08:45.797Z,35.19
2022-08-09T17:11:24.379Z,35.45
2022-08-09T17:14:01.869Z,34.96
2022-08-09T17:16:29.062Z,34.85
2022-08-09T17:18:56.010Z,35.16
2022-08-09T17:21:25.194Z,35.85
2022-08-09T17:24:28.149Z,34.95
2022-08-09T17:26:42.490Z,35.03
2022-08-09T17:29:20.232Z,35.08
2022-08-09T17:31:49.161Z,34.77
2022-08-09T17:34:59.771Z,35.07
2022-08-09T17:37:03.841Z,34.85
2022-08-09T17:39:53.221Z,35.38
2022-08-09T17:42:40.941Z,35.20
2022-08-09T17:45:06.300Z,35.73
2022-08-09T17:47:49.419Z,35.99
2022-08-09T17:50:36.453Z,36.22
2022-08-09T17:53:19.785Z,36.47
2022-08-09T17:55:54.198Z,36.10
2022-08-09T17:58:24.268Z,36.88
2022-08-09T18:00:58.468Z,36.65
2022-08-09T18:03:28.663Z,36.26
2022-08-09T18:05:57.190Z,36.31
2022-08-09T18:08:27.691Z,36.43
2022-08-09T18:11:01.022Z,35.99
2022-08-09T18:13:43.253Z,36.76
2022-08-09T18:16:30.280Z,37.07
2022-08-09T18:19:03.531Z,36.97
2022-08-09T18:21:40.812Z,37.19
2022-08-09T18:24:14.197Z,37.50
2022-08-09T18:26:45.984Z,37.78
2022-08-09T18:30:37.643Z,38.12
2022-08-09T18:32:00.897Z,38.22
2022-08-09T18:34:31.652Z,38.22
2022-08-09T18:36:58.753Z,38.65
2022-08-09T18:39:32.134Z,38.80
2022-08-09T18:42:01.811Z,38.99
2022-08-09T18:44:28.540Z,39.65
2022-08-09T18:47:07.426Z,40.04
2022-08-09T18:49:41.502Z,40.26
2022-08-09T18:52:13.761Z,40.28
2022-08-09T18:54:52.845Z,40.33
2022-08-09T18:57:23.194Z,40.68
2022-08-09T18:59:57.399Z,40.73
2022-08-09T19:02:30.447Z,41.18
2022-08-09T19:05:03.918Z,41.55
2022-08-09T19:07:43.226Z,41.72
2022-08-09T19:10:27.056Z,42.08
2022-08-09T19:12:59.110Z,42.34
2022-08-09T19:15:43.453Z,42.47
2022-08-09T19:18:17.283Z,42.54
2022-08-09T19:21:01.196Z,42.89
2022-08-09T19:24:32.713Z,42.91
2022-08-09T19:26:16.206Z,43.30
2022-08-09T19:28:42.870Z,43.25
2022-08-09T19:31:16.632Z,43.69
2022-08-09T19:33:43.672Z,43.57
2022-08-09T19:36:11.849Z,43.79
2022-08-09T19:38:40.348Z,43.97
2022-08-09T19:41:07.044Z,44.33
2022-08-09T19:44:00.771Z,44.21
2022-08-09T19:46:34.013Z,44.45
2022-08-09T19:50:09.775Z,44.92
2022-08-09T19:51:57.013Z,44.91
2022-08-09T19:54:27.811Z,45.42
2022-08-09T19:56:58.688Z,45.38
2022-08-09T19:59:59.638Z,45.67
2022-08-09T20:04:08.197Z,45.39
2022-08-09T20:05:11.737Z,45.75
2022-08-09T20:07:58.554Z,46.24
2022-08-09T20:10:34.804Z,46.30
2022-08-09T20:13:06.570Z,46.86
2022-08-09T20:16:37.975Z,46.61
2022-08-09T20:18:27.879Z,46.79
2022-08-09T20:20:55.628Z,47.14
2022-08-09T20:23:23.769Z,47.22
2022-08-09T20:25:52.933Z,47.36
2022-08-09T20:28:34.474Z,47.92
2022-08-09T20:31:11.433Z,47.90
2022-08-09T20:33:44.266Z,47.77
2022-08-09T20:36:12.405Z,48.05
2022-08-09T20:41:32.150Z,48.48
2022-08-09T20:44:03.602Z,48.52
2022-08-09T20:46:41.757Z,48.67
2022-08-09T20:49:11.188Z,48.91
2022-08-09T20:51:41.500Z,49.29
2022-08-09T20:54:12.678Z,49.16
2022-08-09T20:56:46.653Z,49.19
2022-08-09T20:59:17.127Z,49.41
2022-08-09T21:01:50.037Z,49.40
2022-08-09T21:05:51.341Z,49.65
2022-08-09T21:07:11.854Z,50.02
2022-08-09T21:09:56.967Z,50.12
2022-08-09T21:12:32.215Z,50.16
2022-08-09T21:15:01.533Z,50.02
2022-08-09T21:18:11.712Z,50.26
2022-08-09T21:20:22.857Z,50.63
2022-08-09T21:22:54.089Z,50.67
2022-08-09T21:25:43.966Z,51.05
2022-08-09T21:28:33.334Z,51.12
2022-08-09T21:31:13.499Z,51.71
2022-08-09T21:33:51.754Z,52.06
2022-08-09T21:36:25.736Z,51.76
2022-08-09T21:38:56.713Z,52.08
2022-08-09T21:42:00.154Z,52.14
2022-08-09T21:44:10.532Z,52.96
2022-08-09T21:46:37.222Z,52.86
2022-08-09T21:49:04.049Z,53.09
2022-08-09T21:51:36.484Z,53.13
2022-08-09T21:54:10.647Z,53.46
2022-08-09T21:56:44.721Z,53.84
2022-08-09T21:59:25.495Z,53.73
2022-08-09T22:02:00.476Z,53.85
2022-08-09T22:04:55.111Z,54.01
2022-08-09T22:07:23.455Z,53.79
2022-08-09T22:10:06.580Z,54.26
2022-08-09T22:12:34.344Z,54.36
2022-08-09T22:15:01.278Z,54.47
2022-08-09T22:17:28.175Z,54.75
2022-08-09T22:20:00.848Z,54.77
2022-08-09T22:22:31.221Z,55.10
2022-08-09T22:26:08.246Z,55.03
2022-08-09T22:27:47.920Z,55.01
2022-08-09T22:30:15.907Z,55.08
2022-08-09T22:32:53.301Z,55.38
2022-08-09T22:36:01.989Z,55.72
2022-08-09T22:38:07.987Z,55.60
2022-08-09T22:40:35.700Z,55.85
2022-08-09T22:43:08.711Z,55.92
2022-08-09T22:48:10.396Z,56.08
2022-08-09T22:48:35.578Z,56.10
2022-08-09T22:51:10.620Z,56.52
2022-08-09T22:54:02.259Z,56.21
2022-08-09T22:56:33.502Z,56.56
2022-08-09T22:59:56.835Z,56.69
2022-08-09T23:01:52.814Z,57.03
2022-08-09T23:04:20.343Z,57.14
2022-08-09T23:07:11.281Z,57.13
2022-08-09T23:09:39.123Z,57.18
2022-08-09T23:12:06.517Z,57.34
2022-08-09T23:14:41.264Z,57.77
2022-08-09T23:17:10.731Z,57.83
2022-08-09T23:20:00.809Z,57.83
2022-08-09T23:22:24.691Z,57.87
2022-08-09T23:24:51.346Z,58.00
2022-08-09T23:27:18.228Z,58.28
2022-08-09T23:29:44.919Z,58.47
2022-08-09T23:32:11.805Z,58.55
2022-08-09T23:34:38.559Z,58.79
2022-08-09T23:37:05.592Z,58.58
2022-08-09T23:39:32.805Z,58.89
2022-08-09T23:41:59.845Z,58.88
2022-08-09T23:44:26.632Z,58.92
2022-08-09T23:46:57.748Z,58.97
2022-08-09T23:49:26.099Z,59.12
2022-08-09T23:51:54.209Z,59.17
2022-08-09T23:54:23.070Z,59.23
2022-08-09T23:56:56.268Z,59.51
2022-08-09T23:59:25.449Z,59.57
